Cedar Crest, New Mexico
Current Conditions -  °F | °C
As of 1:52 PM on Friday 28 Nov 2014 (Local Time) from KABQ Reporting Station
Few Clouds Few Clouds  
Wind Chill: 59°   Ceiling: Unl
Heat Index: 59°   Visibility: 10mi
Dew Point: 21°   Wind: 9mph
Humidity: 23%   Direction: 170°S
Pressure: 30.14"   Gusts: NA
Location:  35.11°N, 106.38°W
Report Text: KABQ 282052Z 17008KT 10SM FEW220 FEW300 15/M06 A3014 RMK AO2 SLP178 T01501061 56035
Loading
Personal Weather Stations






























Interactive Weather Map New forecast layout! Learn more

10-Day Weather Forecast

Advertisements
Track Severe Weather on mobile